sensor_id;sensor_type;location;lat;lon;timestamp;temperature;humidity
6690;DHT22;3382;51.576;8.076;2022-11-20T00:00:44;-1.10;99.90
6690;DHT22;3382;51.576;8.076;2022-11-20T00:03:09;-1.40;99.90
6690;DHT22;3382;51.576;8.076;2022-11-20T00:05:35;-1.00;99.90
6690;DHT22;3382;51.576;8.076;2022-11-20T00:08:01;-1.50;99.90
6690;DHT22;3382;51.576;8.076;2022-11-20T00:10:27;-0.90;99.90
6690;DHT22;3382;51.576;8.076;2022-11-20T00:12:52;-1.50;99.90
6690;DHT22;3382;51.576;8.076;2022-11-20T00:15:18;-1.50;99.90
6690;DHT22;3382;51.576;8.076;2022-11-20T00:17:43;-1.50;99.90
6690;DHT22;3382;51.576;8.076;2022-11-20T00:20:09;-1.60;99.90
6690;DHT22;3382;51.576;8.076;2022-11-20T00:22:35;-1.60;99.90
6690;DHT22;3382;51.576;8.076;2022-11-20T00:25:01;-1.60;99.90
6690;DHT22;3382;51.576;8.076;2022-11-20T00:27:26;-1.60;99.90
6690;DHT22;3382;51.576;8.076;2022-11-20T00:29:52;-1.60;99.90
6690;DHT22;3382;51.576;8.076;2022-11-20T00:32:17;-1.70;99.90
6690;DHT22;3382;51.576;8.076;2022-11-20T00:34:43;-1.70;99.90
6690;DHT22;3382;51.576;8.076;2022-11-20T00:37:09;-1.00;99.90
6690;DHT22;3382;51.576;8.076;2022-11-20T00:39:34;-1.70;99.90
6690;DHT22;3382;51.576;8.076;2022-11-20T00:42:00;-1.10;99.90
6690;DHT22;3382;51.576;8.076;2022-11-20T00:44:25;-1.70;99.90
6690;DHT22;3382;51.576;8.076;2022-11-20T00:46:51;-1.80;99.90
6690;DHT22;3382;51.576;8.076;2022-11-20T00:49:16;-1.80;99.90
6690;DHT22;3382;51.576;8.076;2022-11-20T00:51:42;-1.20;99.90
6690;DHT22;3382;51.576;8.076;2022-11-20T00:54:08;-1.80;99.90
6690;DHT22;3382;51.576;8.076;2022-11-20T00:56:33;-1.80;99.90
6690;DHT22;3382;51.576;8.076;2022-11-20T00:59:00;-1.90;99.90
6690;DHT22;3382;51.576;8.076;2022-11-20T01:01:26;-1.90;99.90
6690;DHT22;3382;51.576;8.076;2022-11-20T01:03:53;-1.90;99.90
6690;DHT22;3382;51.576;8.076;2022-11-20T01:08:51;-1.70;99.90
6690;DHT22;3382;51.576;8.076;2022-11-20T01:11:20;-2.00;99.90
6690;DHT22;3382;51.576;8.076;2022-11-20T01:13:47;-1.90;99.90
6690;DHT22;3382;51.576;8.076;2022-11-20T01:16:16;-1.70;99.90
6690;DHT22;3382;51.576;8.076;2022-11-20T01:18:45;-1.90;99.90
6690;DHT22;3382;51.576;8.076;2022-11-20T01:21:16;-1.30;99.90
6690;DHT22;3382;51.576;8.076;2022-11-20T01:23:43;-1.20;99.90
6690;DHT22;3382;51.576;8.076;2022-11-20T01:26:17;-1.20;99.90
6690;DHT22;3382;51.576;8.076;2022-11-20T01:28:43;-1.90;99.90
6690;DHT22;3382;51.576;8.076;2022-11-20T01:33:41;-1.90;99.90
6690;DHT22;3382;51.576;8.076;2022-11-20T01:36:07;-1.30;99.90
6690;DHT22;3382;51.576;8.076;2022-11-20T01:38:34;-2.00;99.90
6690;DHT22;3382;51.576;8.076;2022-11-20T01:40:59;-1.90;99.90
6690;DHT22;3382;51.576;8.076;2022-11-20T01:43:26;-1.50;99.90
6690;DHT22;3382;51.576;8.076;2022-11-20T01:46:19;-1.30;99.90
6690;DHT22;3382;51.576;8.076;2022-11-20T01:48:58;-2.00;99.90
6690;DHT22;3382;51.576;8.076;2022-11-20T01:51:32;-2.00;99.90
6690;DHT22;3382;51.576;8.076;2022-11-20T01:54:00;-1.40;99.90
6690;DHT22;3382;51.576;8.076;2022-11-20T01:56:28;-2.10;99.90
6690;DHT22;3382;51.576;8.076;2022-11-20T01:58:58;-2.10;99.90
6690;DHT22;3382;51.576;8.076;2022-11-20T02:01:26;-2.10;99.90
6690;DHT22;3382;51.576;8.076;2022-11-20T02:03:52;-1.90;99.90
6690;DHT22;3382;51.576;8.076;2022-11-20T02:06:31;-2.10;99.90
6690;DHT22;3382;51.576;8.076;2022-11-20T02:08:58;-2.10;99.90
6690;DHT22;3382;51.576;8.076;2022-11-20T02:11:24;-2.10;99.90
6690;DHT22;3382;51.576;8.076;2022-11-20T02:13:49;-2.00;99.90
6690;DHT22;3382;51.576;8.076;2022-11-20T02:16:24;-2.00;99.90
6690;DHT22;3382;51.576;8.076;2022-11-20T02:18:51;-1.40;99.90
6690;DHT22;3382;51.576;8.076;2022-11-20T02:24:14;-1.50;99.90
6690;DHT22;3382;51.576;8.076;2022-11-20T02:26:51;-1.90;99.90
6690;DHT22;3382;51.576;8.076;2022-11-20T02:29:23;-1.90;99.90
6690;DHT22;3382;51.576;8.076;2022-11-20T02:31:50;-1.80;99.90
6690;DHT22;3382;51.576;8.076;2022-11-20T02:34:16;-1.80;99.90
6690;DHT22;3382;51.576;8.076;2022-11-20T02:36:42;-1.60;99.90
6690;DHT22;3382;51.576;8.076;2022-11-20T02:39:09;-1.80;99.90
6690;DHT22;3382;51.576;8.076;2022-11-20T02:41:37;-1.70;99.90
6690;DHT22;3382;51.576;8.076;2022-11-20T02:44:04;-1.70;99.90
6690;DHT22;3382;51.576;8.076;2022-11-20T02:46:30;-1.60;99.90
6690;DHT22;3382;51.576;8.076;2022-11-20T02:48:56;-0.80;99.90
6690;DHT22;3382;51.576;8.076;2022-11-20T02:51:22;-0.90;99.90
6690;DHT22;3382;51.576;8.076;2022-11-20T02:53:48;-1.30;99.90
6690;DHT22;3382;51.576;8.076;2022-11-20T02:56:14;-1.20;99.90
6690;DHT22;3382;51.576;8.076;2022-11-20T02:58:40;-0.60;99.90
6690;DHT22;3382;51.576;8.076;2022-11-20T03:01:06;-1.10;99.90
6690;DHT22;3382;51.576;8.076;2022-11-20T03:03:31;-1.10;99.90
6690;DHT22;3382;51.576;8.076;2022-11-20T03:05:59;-0.90;99.90
6690;DHT22;3382;51.576;8.076;2022-11-20T03:08:25;-0.90;99.90
6690;DHT22;3382;51.576;8.076;2022-11-20T03:10:51;-0.70;99.90
6690;DHT22;3382;51.576;8.076;2022-11-20T03:13:17;-0.60;99.90
6690;DHT22;3382;51.576;8.076;2022-11-20T03:15:42;-0.40;99.90
6690;DHT22;3382;51.576;8.076;2022-11-20T03:18:08;-0.30;99.90
6690;DHT22;3382;51.576;8.076;2022-11-20T03:20:33;-0.20;99.90
6690;DHT22;3382;51.576;8.076;2022-11-20T03:22:59;0.30;99.90
6690;DHT22;3382;51.576;8.076;2022-11-20T03:25:28;0.50;99.90
6690;DHT22;3382;51.576;8.076;2022-11-20T03:27:54;0.10;99.90
6690;DHT22;3382;51.576;8.076;2022-11-20T03:30:20;0.80;99.90
6690;DHT22;3382;51.576;8.076;2022-11-20T03:32:46;0.30;99.90
6690;DHT22;3382;51.576;8.076;2022-11-20T03:35:11;0.90;99.90
6690;DHT22;3382;51.576;8.076;2022-11-20T03:37:37;0.40;99.90
6690;DHT22;3382;51.576;8.076;2022-11-20T03:40:03;0.50;99.90
6690;DHT22;3382;51.576;8.076;2022-11-20T03:42:29;0.60;99.90
6690;DHT22;3382;51.576;8.076;2022-11-20T03:45:17;0.60;99.90
6690;DHT22;3382;51.576;8.076;2022-11-20T03:47:44;0.70;99.90
6690;DHT22;3382;51.576;8.076;2022-11-20T03:50:11;0.70;99.90
6690;DHT22;3382;51.576;8.076;2022-11-20T03:52:38;0.80;99.90
6690;DHT22;3382;51.576;8.076;2022-11-20T03:55:05;0.90;99.90
6690;DHT22;3382;51.576;8.076;2022-11-20T03:57:30;0.90;99.90
6690;DHT22;3382;51.576;8.076;2022-11-20T03:59:56;0.90;99.90
6690;DHT22;3382;51.576;8.076;2022-11-20T04:02:21;1.00;99.90
6690;DHT22;3382;51.576;8.076;2022-11-20T04:04:47;1.00;99.90
6690;DHT22;3382;51.576;8.076;2022-11-20T04:07:13;1.00;99.90
6690;DHT22;3382;51.576;8.076;2022-11-20T04:09:38;1.10;99.90
6690;DHT22;3382;51.576;8.076;2022-11-20T04:12:04;1.10;99.90
6690;DHT22;3382;51.576;8.076;2022-11-20T04:14:30;1.20;99.90
6690;DHT22;3382;51.576;8.076;2022-11-20T04:16:55;1.20;99.90
6690;DHT22;3382;51.576;8.076;2022-11-20T04:19:21;1.20;99.90
6690;DHT22;3382;51.576;8.076;2022-11-20T04:21:46;1.20;99.90
6690;DHT22;3382;51.576;8.076;2022-11-20T04:24:12;1.20;99.90
6690;DHT22;3382;51.576;8.076;2022-11-20T04:26:38;1.30;99.90
6690;DHT22;3382;51.576;8.076;2022-11-20T04:29:04;1.30;99.90
6690;DHT22;3382;51.576;8.076;2022-11-20T04:31:32;1.40;99.90
6690;DHT22;3382;51.576;8.076;2022-11-20T04:34:04;1.40;99.90
6690;DHT22;3382;51.576;8.076;2022-11-20T04:36:30;1.50;99.90
6690;DHT22;3382;51.576;8.076;2022-11-20T04:39:02;1.50;99.90
6690;DHT22;3382;51.576;8.076;2022-11-20T04:41:31;2.00;99.90
6690;DHT22;3382;51.576;8.076;2022-11-20T04:43:59;1.50;99.90
6690;DHT22;3382;51.576;8.076;2022-11-20T04:46:28;1.50;99.90
6690;DHT22;3382;51.576;8.076;2022-11-20T04:48:55;1.60;99.90
6690;DHT22;3382;51.576;8.076;2022-11-20T04:51:20;1.70;99.90
6690;DHT22;3382;51.576;8.076;2022-11-20T04:53:46;1.70;99.90
6690;DHT22;3382;51.576;8.076;2022-11-20T04:56:13;2.10;99.90
6690;DHT22;3382;51.576;8.076;2022-11-20T04:58:39;2.30;99.90
6690;DHT22;3382;51.576;8.076;2022-11-20T05:01:12;1.80;99.90
6690;DHT22;3382;51.576;8.076;2022-11-20T05:03:42;1.80;99.90
6690;DHT22;3382;51.576;8.076;2022-11-20T05:06:10;1.80;99.90
6690;DHT22;3382;51.576;8.076;2022-11-20T05:08:36;2.30;99.90
6690;DHT22;3382;51.576;8.076;2022-11-20T05:11:03;1.90;99.90
6690;DHT22;3382;51.576;8.076;2022-11-20T05:13:29;1.90;99.90
6690;DHT22;3382;51.576;8.076;2022-11-20T05:15:54;1.90;99.90
6690;DHT22;3382;51.576;8.076;2022-11-20T05:18:20;1.90;99.90
6690;DHT22;3382;51.576;8.076;2022-11-20T05:20:46;1.90;99.90
6690;DHT22;3382;51.576;8.076;2022-11-20T05:23:12;1.90;99.90
6690;DHT22;3382;51.576;8.076;2022-11-20T05:25:37;2.00;99.90
6690;DHT22;3382;51.576;8.076;2022-11-20T05:28:03;1.90;99.90
6690;DHT22;3382;51.576;8.076;2022-11-20T05:30:28;1.90;99.90
6690;DHT22;3382;51.576;8.076;2022-11-20T05:32:54;2.10;99.90
6690;DHT22;3382;51.576;8.076;2022-11-20T05:35:20;2.00;99.90
6690;DHT22;3382;51.576;8.076;2022-11-20T05:37:45;1.90;99.90
6690;DHT22;3382;51.576;8.076;2022-11-20T05:40:11;1.90;99.90
6690;DHT22;3382;51.576;8.076;2022-11-20T05:42:37;2.00;99.90
6690;DHT22;3382;51.576;8.076;2022-11-20T05:45:04;2.10;99.90
6690;DHT22;3382;51.576;8.076;2022-11-20T05:47:32;2.00;99.90
6690;DHT22;3382;51.576;8.076;2022-11-20T05:49:58;2.00;99.90
6690;DHT22;3382;51.576;8.076;2022-11-20T05:52:27;2.00;99.90
6690;DHT22;3382;51.576;8.076;2022-11-20T05:54:53;2.60;99.90
6690;DHT22;3382;51.576;8.076;2022-11-20T05:57:19;2.00;99.90
6690;DHT22;3382;51.576;8.076;2022-11-20T05:59:44;2.00;99.90
6690;DHT22;3382;51.576;8.076;2022-11-20T06:02:10;2.00;99.90
6690;DHT22;3382;51.576;8.076;2022-11-20T06:04:35;2.00;99.90
6690;DHT22;3382;51.576;8.076;2022-11-20T06:07:01;2.00;99.90
6690;DHT22;3382;51.576;8.076;2022-11-20T06:09:26;1.90;99.90
6690;DHT22;3382;51.576;8.076;2022-11-20T06:11:52;2.00;99.90
6690;DHT22;3382;51.576;8.076;2022-11-20T06:14:18;1.90;99.90
6690;DHT22;3382;51.576;8.076;2022-11-20T06:16:43;2.00;99.90
6690;DHT22;3382;51.576;8.076;2022-11-20T06:19:10;1.90;99.90
6690;DHT22;3382;51.576;8.076;2022-11-20T06:21:35;1.90;99.90
6690;DHT22;3382;51.576;8.076;2022-11-20T06:24:01;1.90;99.90
6690;DHT22;3382;51.576;8.076;2022-11-20T06:26:27;2.00;99.90
6690;DHT22;3382;51.576;8.076;2022-11-20T06:28:53;2.00;99.90
6690;DHT22;3382;51.576;8.076;2022-11-20T06:31:22;2.00;99.90
6690;DHT22;3382;51.576;8.076;2022-11-20T06:33:49;2.00;99.90
6690;DHT22;3382;51.576;8.076;2022-11-20T06:36:16;2.00;99.90
6690;DHT22;3382;51.576;8.076;2022-11-20T06:38:42;2.50;99.90
6690;DHT22;3382;51.576;8.076;2022-11-20T06:41:17;1.90;99.90
6690;DHT22;3382;51.576;8.076;2022-11-20T06:43:43;1.90;99.90
6690;DHT22;3382;51.576;8.076;2022-11-20T06:46:10;1.90;99.90
6690;DHT22;3382;51.576;8.076;2022-11-20T06:48:36;1.80;99.90
6690;DHT22;3382;51.576;8.076;2022-11-20T06:51:06;1.70;99.90
6690;DHT22;3382;51.576;8.076;2022-11-20T06:53:33;2.30;99.90
6690;DHT22;3382;51.576;8.076;2022-11-20T06:55:59;1.60;99.90
6690;DHT22;3382;51.576;8.076;2022-11-20T06:58:27;1.70;99.90
6690;DHT22;3382;51.576;8.076;2022-11-20T07:00:53;1.70;99.90
6690;DHT22;3382;51.576;8.076;2022-11-20T07:03:19;1.80;99.90
6690;DHT22;3382;51.576;8.076;2022-11-20T07:05:45;1.70;99.90
6690;DHT22;3382;51.576;8.076;2022-11-20T07:08:11;2.50;99.90
6690;DHT22;3382;51.576;8.076;2022-11-20T07:10:37;3.90;99.90
6690;DHT22;3382;51.576;8.076;2022-11-20T07:13:03;5.10;99.90
6690;DHT22;3382;51.576;8.076;2022-11-20T07:15:29;6.00;99.90
6690;DHT22;3382;51.576;8.076;2022-11-20T07:17:55;6.80;99.90
6690;DHT22;3382;51.576;8.076;2022-11-20T07:20:20;7.40;99.90
6690;DHT22;3382;51.576;8.076;2022-11-20T07:22:46;7.90;99.90
6690;DHT22;3382;51.576;8.076;2022-11-20T07:25:11;6.50;99.90
6690;DHT22;3382;51.576;8.076;2022-11-20T07:27:37;5.10;99.90
6690;DHT22;3382;51.576;8.076;2022-11-20T07:30:04;4.20;99.90
6690;DHT22;3382;51.576;8.076;2022-11-20T07:32:29;3.60;99.90
6690;DHT22;3382;51.576;8.076;2022-11-20T07:34:55;3.10;99.90
6690;DHT22;3382;51.576;8.076;2022-11-20T07:37:21;2.80;99.90
6690;DHT22;3382;51.576;8.076;2022-11-20T07:39:47;2.50;99.90
6690;DHT22;3382;51.576;8.076;2022-11-20T07:42:12;2.30;99.90
6690;DHT22;3382;51.576;8.076;2022-11-20T07:44:38;2.20;99.90
6690;DHT22;3382;51.576;8.076;2022-11-20T07:47:04;2.10;99.90
6690;DHT22;3382;51.576;8.076;2022-11-20T07:49:30;2.10;99.90
6690;DHT22;3382;51.576;8.076;2022-11-20T07:51:56;2.00;99.90
6690;DHT22;3382;51.576;8.076;2022-11-20T07:54:22;2.00;99.90
6690;DHT22;3382;51.576;8.076;2022-11-20T07:56:48;2.20;99.90
6690;DHT22;3382;51.576;8.076;2022-11-20T07:59:14;2.20;99.90
6690;DHT22;3382;51.576;8.076;2022-11-20T08:01:41;2.20;99.90
6690;DHT22;3382;51.576;8.076;2022-11-20T08:04:07;2.30;99.90
6690;DHT22;3382;51.576;8.076;2022-11-20T08:06:32;2.20;99.90
6690;DHT22;3382;51.576;8.076;2022-11-20T08:08:58;2.20;99.90
6690;DHT22;3382;51.576;8.076;2022-11-20T08:11:24;2.10;99.90
6690;DHT22;3382;51.576;8.076;2022-11-20T08:14:08;2.10;99.90
6690;DHT22;3382;51.576;8.076;2022-11-20T08:16:45;2.20;99.90
6690;DHT22;3382;51.576;8.076;2022-11-20T08:19:12;2.20;99.90
6690;DHT22;3382;51.576;8.076;2022-11-20T08:21:38;2.20;99.90
6690;DHT22;3382;51.576;8.076;2022-11-20T08:24:04;2.10;99.90
6690;DHT22;3382;51.576;8.076;2022-11-20T08:26:30;2.20;99.90
6690;DHT22;3382;51.576;8.076;2022-11-20T08:28:56;2.30;99.90
6690;DHT22;3382;51.576;8.076;2022-11-20T08:31:23;2.40;99.90
6690;DHT22;3382;51.576;8.076;2022-11-20T08:33:49;2.50;99.90
6690;DHT22;3382;51.576;8.076;2022-11-20T08:36:15;2.60;99.90
6690;DHT22;3382;51.576;8.076;2022-11-20T08:38:41;2.70;99.90
6690;DHT22;3382;51.576;8.076;2022-11-20T08:41:07;2.80;99.90
6690;DHT22;3382;51.576;8.076;2022-11-20T08:44:01;2.90;99.90
6690;DHT22;3382;51.576;8.076;2022-11-20T08:46:38;2.90;99.90
6690;DHT22;3382;51.576;8.076;2022-11-20T08:49:08;3.10;99.90
6690;DHT22;3382;51.576;8.076;2022-11-20T08:51:35;3.10;99.90
6690;DHT22;3382;51.576;8.076;2022-11-20T08:54:01;3.50;99.90
6690;DHT22;3382;51.576;8.076;2022-11-20T08:56:27;4.10;99.90
6690;DHT22;3382;51.576;8.076;2022-11-20T08:58:52;4.10;99.90
6690;DHT22;3382;51.576;8.076;2022-11-20T09:01:19;4.00;99.90
6690;DHT22;3382;51.576;8.076;2022-11-20T09:03:45;4.00;99.90
6690;DHT22;3382;51.576;8.076;2022-11-20T09:06:11;3.90;99.90
6690;DHT22;3382;51.576;8.076;2022-11-20T09:08:36;3.90;99.90
6690;DHT22;3382;51.576;8.076;2022-11-20T09:11:03;3.90;99.90
6690;DHT22;3382;51.576;8.076;2022-11-20T09:13:29;3.90;99.90
6690;DHT22;3382;51.576;8.076;2022-11-20T09:15:57;4.00;99.90
6690;DHT22;3382;51.576;8.076;2022-11-20T09:18:26;4.00;99.90
6690;DHT22;3382;51.576;8.076;2022-11-20T09:20:59;4.00;99.90
6690;DHT22;3382;51.576;8.076;2022-11-20T09:23:26;4.10;99.90
6690;DHT22;3382;51.576;8.076;2022-11-20T09:25:52;4.60;99.90
6690;DHT22;3382;51.576;8.076;2022-11-20T09:28:18;4.10;99.90
6690;DHT22;3382;51.576;8.076;2022-11-20T09:30:44;4.20;99.90
6690;DHT22;3382;51.576;8.076;2022-11-20T09:33:10;4.10;99.90
6690;DHT22;3382;51.576;8.076;2022-11-20T09:35:35;4.10;99.90
6690;DHT22;3382;51.576;8.076;2022-11-20T09:38:06;4.20;99.90
6690;DHT22;3382;51.576;8.076;2022-11-20T09:40:32;4.30;99.90
6690;DHT22;3382;51.576;8.076;2022-11-20T09:43:07;4.40;99.90
6690;DHT22;3382;51.576;8.076;2022-11-20T09:46:21;4.40;99.90
6690;DHT22;3382;51.576;8.076;2022-11-20T09:56:20;4.70;99.90
6690;DHT22;3382;51.576;8.076;2022-11-20T09:58:49;4.80;99.90
6690;DHT22;3382;51.576;8.076;2022-11-20T10:01:18;4.80;99.90
6690;DHT22;3382;51.576;8.076;2022-11-20T10:06:47;5.00;99.90
6690;DHT22;3382;51.576;8.076;2022-11-20T10:12:12;5.00;99.90
6690;DHT22;3382;51.576;8.076;2022-11-20T10:20:56;5.50;99.90
6690;DHT22;3382;51.576;8.076;2022-11-20T10:26:03;5.70;99.90
6690;DHT22;3382;51.576;8.076;2022-11-20T10:31:39;5.70;99.90
6690;DHT22;3382;51.576;8.076;2022-11-20T10:34:13;5.70;99.90
6690;DHT22;3382;51.576;8.076;2022-11-20T10:37:08;5.80;99.90
6690;DHT22;3382;51.576;8.076;2022-11-20T10:42:46;6.50;99.90
6690;DHT22;3382;51.576;8.076;2022-11-20T10:47:52;6.40;99.90
6690;DHT22;3382;51.576;8.076;2022-11-20T10:50:21;6.60;99.90
6690;DHT22;3382;51.576;8.076;2022-11-20T10:53:00;6.60;99.90
6690;DHT22;3382;51.576;8.076;2022-11-20T11:01:13;6.90;99.90
6690;DHT22;3382;51.576;8.076;2022-11-20T11:03:40;6.60;99.90
6690;DHT22;3382;51.576;8.076;2022-11-20T11:06:37;6.60;99.90
6690;DHT22;3382;51.576;8.076;2022-11-20T11:09:12;6.60;99.90
6690;DHT22;3382;51.576;8.076;2022-11-20T11:11:39;6.70;99.90
6690;DHT22;3382;51.576;8.076;2022-11-20T11:14:13;7.00;99.90
6690;DHT22;3382;51.576;8.076;2022-11-20T11:16:56;7.00;99.90
6690;DHT22;3382;51.576;8.076;2022-11-20T11:19:22;7.10;99.90
6690;DHT22;3382;51.576;8.076;2022-11-20T11:21:54;7.00;99.90
6690;DHT22;3382;51.576;8.076;2022-11-20T11:24:25;7.00;99.90
6690;DHT22;3382;51.576;8.076;2022-11-20T11:26:59;6.90;99.90
6690;DHT22;3382;51.576;8.076;2022-11-20T11:29:30;6.90;99.90
6690;DHT22;3382;51.576;8.076;2022-11-20T11:32:22;6.90;99.90
6690;DHT22;3382;51.576;8.076;2022-11-20T11:35:03;7.40;99.90
6690;DHT22;3382;51.576;8.076;2022-11-20T11:37:39;7.10;99.90
6690;DHT22;3382;51.576;8.076;2022-11-20T11:40:08;7.30;99.90
6690;DHT22;3382;51.576;8.076;2022-11-20T11:42:47;7.20;99.90
6690;DHT22;3382;51.576;8.076;2022-11-20T11:45:16;7.30;99.90
6690;DHT22;3382;51.576;8.076;2022-11-20T11:47:46;7.30;99.90
6690;DHT22;3382;51.576;8.076;2022-11-20T11:50:24;7.20;99.90
6690;DHT22;3382;51.576;8.076;2022-11-20T11:53:12;7.40;99.90
6690;DHT22;3382;51.576;8.076;2022-11-20T11:55:58;7.30;99.90
6690;DHT22;3382;51.576;8.076;2022-11-20T11:58:47;7.30;99.90
6690;DHT22;3382;51.576;8.076;2022-11-20T12:06:47;7.70;99.90
6690;DHT22;3382;51.576;8.076;2022-11-20T12:09:13;8.40;99.90
6690;DHT22;3382;51.576;8.076;2022-11-20T12:14:36;8.90;99.90
6690;DHT22;3382;51.576;8.076;2022-11-20T12:17:02;8.60;99.90
6690;DHT22;3382;51.576;8.076;2022-11-20T12:19:31;8.30;99.90
6690;DHT22;3382;51.576;8.076;2022-11-20T12:24:42;7.70;99.90
6690;DHT22;3382;51.576;8.076;2022-11-20T12:27:38;7.70;99.90
6690;DHT22;3382;51.576;8.076;2022-11-20T12:30:13;7.60;99.90
6690;DHT22;3382;51.576;8.076;2022-11-20T12:40:57;7.50;99.90
6690;DHT22;3382;51.576;8.076;2022-11-20T12:43:27;7.40;99.90
6690;DHT22;3382;51.576;8.076;2022-11-20T12:46:15;7.30;99.90
6690;DHT22;3382;51.576;8.076;2022-11-20T13:00:19;7.00;99.90
6690;DHT22;3382;51.576;8.076;2022-11-20T13:05:58;6.80;99.90
6690;DHT22;3382;51.576;8.076;2022-11-20T13:08:28;6.80;99.90
6690;DHT22;3382;51.576;8.076;2022-11-20T13:11:07;7.20;99.90
6690;DHT22;3382;51.576;8.076;2022-11-20T13:18:39;6.40;99.90
6690;DHT22;3382;51.576;8.076;2022-11-20T13:21:15;6.40;99.90
6690;DHT22;3382;51.576;8.076;2022-11-20T13:23:41;6.30;99.90
6690;DHT22;3382;51.576;8.076;2022-11-20T13:26:22;6.20;99.90
6690;DHT22;3382;51.576;8.076;2022-11-20T13:29:18;6.20;99.90
6690;DHT22;3382;51.576;8.076;2022-11-20T13:31:46;6.20;99.90
6690;DHT22;3382;51.576;8.076;2022-11-20T13:34:24;6.20;99.90
6690;DHT22;3382;51.576;8.076;2022-11-20T13:36:53;6.30;99.90
6690;DHT22;3382;51.576;8.076;2022-11-20T13:39:35;6.20;99.90
6690;DHT22;3382;51.576;8.076;2022-11-20T13:42:25;6.20;99.90
6690;DHT22;3382;51.576;8.076;2022-11-20T13:45:01;6.20;99.90
6690;DHT22;3382;51.576;8.076;2022-11-20T13:47:28;6.10;99.90
6690;DHT22;3382;51.576;8.076;2022-11-20T13:49:55;6.10;99.90
6690;DHT22;3382;51.576;8.076;2022-11-20T14:00:20;6.20;99.90
6690;DHT22;3382;51.576;8.076;2022-11-20T14:05:59;6.10;99.90
6690;DHT22;3382;51.576;8.076;2022-11-20T14:08:47;6.20;99.90
6690;DHT22;3382;51.576;8.076;2022-11-20T14:11:25;6.20;99.90
6690;DHT22;3382;51.576;8.076;2022-11-20T14:13:55;6.20;99.90
6690;DHT22;3382;51.576;8.076;2022-11-20T14:16:22;6.20;99.90
6690;DHT22;3382;51.576;8.076;2022-11-20T14:18:48;6.20;99.90
6690;DHT22;3382;51.576;8.076;2022-11-20T14:21:29;6.20;99.90
6690;DHT22;3382;51.576;8.076;2022-11-20T14:24:10;6.20;99.90
6690;DHT22;3382;51.576;8.076;2022-11-20T14:26:37;6.30;99.90
6690;DHT22;3382;51.576;8.076;2022-11-20T14:29:04;6.40;99.90
6690;DHT22;3382;51.576;8.076;2022-11-20T14:31:30;6.40;99.90
6690;DHT22;3382;51.576;8.076;2022-11-20T14:33:56;6.40;99.90
6690;DHT22;3382;51.576;8.076;2022-11-20T14:36:24;6.40;99.90
6690;DHT22;3382;51.576;8.076;2022-11-20T14:38:51;6.40;99.90
6690;DHT22;3382;51.576;8.076;2022-11-20T14:41:22;6.40;99.90
6690;DHT22;3382;51.576;8.076;2022-11-20T14:43:57;6.40;99.90
6690;DHT22;3382;51.576;8.076;2022-11-20T14:46:24;6.30;99.90
6690;DHT22;3382;51.576;8.076;2022-11-20T14:48:53;6.30;99.90
6690;DHT22;3382;51.576;8.076;2022-11-20T14:51:37;6.40;99.90
6690;DHT22;3382;51.576;8.076;2022-11-20T14:56:38;6.30;99.90
6690;DHT22;3382;51.576;8.076;2022-11-20T14:59:04;6.30;99.90
6690;DHT22;3382;51.576;8.076;2022-11-20T15:01:32;6.20;99.90
6690;DHT22;3382;51.576;8.076;2022-11-20T15:04:06;6.40;99.90
6690;DHT22;3382;51.576;8.076;2022-11-20T15:06:32;6.40;99.90
6690;DHT22;3382;51.576;8.076;2022-11-20T15:08:58;6.40;99.90
6690;DHT22;3382;51.576;8.076;2022-11-20T15:11:32;6.20;99.90
6690;DHT22;3382;51.576;8.076;2022-11-20T15:14:03;6.20;99.90
6690;DHT22;3382;51.576;8.076;2022-11-20T15:16:30;6.20;99.90
6690;DHT22;3382;51.576;8.076;2022-11-20T15:18:56;6.30;99.90
6690;DHT22;3382;51.576;8.076;2022-11-20T15:21:22;6.20;99.90
6690;DHT22;3382;51.576;8.076;2022-11-20T15:23:48;6.10;99.90
6690;DHT22;3382;51.576;8.076;2022-11-20T15:26:18;6.10;99.90
6690;DHT22;3382;51.576;8.076;2022-11-20T15:28:47;6.20;99.90
6690;DHT22;3382;51.576;8.076;2022-11-20T15:31:15;6.20;99.90
6690;DHT22;3382;51.576;8.076;2022-11-20T15:33:41;6.20;99.90
6690;DHT22;3382;51.576;8.076;2022-11-20T15:36:06;6.10;99.90
6690;DHT22;3382;51.576;8.076;2022-11-20T15:38:32;6.30;99.90
6690;DHT22;3382;51.576;8.076;2022-11-20T15:40:58;6.40;99.90
6690;DHT22;3382;51.576;8.076;2022-11-20T15:43:26;6.30;99.90
6690;DHT22;3382;51.576;8.076;2022-11-20T15:46:00;6.30;99.90
6690;DHT22;3382;51.576;8.076;2022-11-20T15:48:35;6.00;99.90
6690;DHT22;3382;51.576;8.076;2022-11-20T15:53:40;6.10;99.90
6690;DHT22;3382;51.576;8.076;2022-11-20T15:56:11;6.10;99.90
6690;DHT22;3382;51.576;8.076;2022-11-20T15:58:38;6.20;99.90
6690;DHT22;3382;51.576;8.076;2022-11-20T16:01:04;6.10;99.90
6690;DHT22;3382;51.576;8.076;2022-11-20T16:03:29;6.00;99.90
6690;DHT22;3382;51.576;8.076;2022-11-20T16:05:55;5.90;99.90
6690;DHT22;3382;51.576;8.076;2022-11-20T16:08:21;5.90;99.90
6690;DHT22;3382;51.576;8.076;2022-11-20T16:10:46;6.00;99.90
6690;DHT22;3382;51.576;8.076;2022-11-20T16:13:17;5.90;99.90
6690;DHT22;3382;51.576;8.076;2022-11-20T16:16:05;6.00;99.90
6690;DHT22;3382;51.576;8.076;2022-11-20T16:18:32;6.00;99.90
6690;DHT22;3382;51.576;8.076;2022-11-20T16:20:58;6.00;99.90
6690;DHT22;3382;51.576;8.076;2022-11-20T16:23:24;6.00;99.90
6690;DHT22;3382;51.576;8.076;2022-11-20T16:25:50;6.00;99.90
6690;DHT22;3382;51.576;8.076;2022-11-20T16:28:16;5.90;99.90
6690;DHT22;3382;51.576;8.076;2022-11-20T16:30:42;5.90;99.90
6690;DHT22;3382;51.576;8.076;2022-11-20T16:33:12;5.90;99.90
6690;DHT22;3382;51.576;8.076;2022-11-20T16:35:38;5.90;99.90
6690;DHT22;3382;51.576;8.076;2022-11-20T16:38:04;5.80;99.90
6690;DHT22;3382;51.576;8.076;2022-11-20T16:40:30;5.80;99.90
6690;DHT22;3382;51.576;8.076;2022-11-20T16:42:55;6.20;99.90
6690;DHT22;3382;51.576;8.076;2022-11-20T16:45:22;5.70;99.90
6690;DHT22;3382;51.576;8.076;2022-11-20T16:47:48;5.60;99.90
6690;DHT22;3382;51.576;8.076;2022-11-20T16:50:13;5.50;99.90
6690;DHT22;3382;51.576;8.076;2022-11-20T16:52:39;5.50;99.90
6690;DHT22;3382;51.576;8.076;2022-11-20T16:55:05;5.60;99.90
6690;DHT22;3382;51.576;8.076;2022-11-20T16:57:31;5.50;99.90
6690;DHT22;3382;51.576;8.076;2022-11-20T17:00:00;5.50;99.90
6690;DHT22;3382;51.576;8.076;2022-11-20T17:02:26;5.40;99.90
6690;DHT22;3382;51.576;8.076;2022-11-20T17:04:52;5.40;99.90
6690;DHT22;3382;51.576;8.076;2022-11-20T17:07:18;5.40;99.90
6690;DHT22;3382;51.576;8.076;2022-11-20T17:09:43;5.40;99.90
6690;DHT22;3382;51.576;8.076;2022-11-20T17:12:09;5.40;99.90
6690;DHT22;3382;51.576;8.076;2022-11-20T17:14:35;5.30;99.90
6690;DHT22;3382;51.576;8.076;2022-11-20T17:17:00;5.30;99.90
6690;DHT22;3382;51.576;8.076;2022-11-20T17:19:26;5.30;99.90
6690;DHT22;3382;51.576;8.076;2022-11-20T17:21:52;5.40;99.90
6690;DHT22;3382;51.576;8.076;2022-11-20T17:24:18;5.20;99.90
6690;DHT22;3382;51.576;8.076;2022-11-20T17:26:46;5.20;99.90
6690;DHT22;3382;51.576;8.076;2022-11-20T17:29:15;5.30;99.90
6690;DHT22;3382;51.576;8.076;2022-11-20T17:31:42;5.30;99.90
6690;DHT22;3382;51.576;8.076;2022-11-20T17:34:11;5.30;99.90
6690;DHT22;3382;51.576;8.076;2022-11-20T17:36:37;5.30;99.90
6690;DHT22;3382;51.576;8.076;2022-11-20T17:39:10;5.50;99.90
6690;DHT22;3382;51.576;8.076;2022-11-20T17:41:36;5.30;99.90
6690;DHT22;3382;51.576;8.076;2022-11-20T17:44:02;5.30;99.90
6690;DHT22;3382;51.576;8.076;2022-11-20T17:46:32;5.40;99.90
6690;DHT22;3382;51.576;8.076;2022-11-20T17:48:58;5.30;99.90
6690;DHT22;3382;51.576;8.076;2022-11-20T17:51:26;5.30;99.90
6690;DHT22;3382;51.576;8.076;2022-11-20T17:53:58;5.30;99.90
6690;DHT22;3382;51.576;8.076;2022-11-20T17:56:25;5.30;99.90
6690;DHT22;3382;51.576;8.076;2022-11-20T17:59:11;5.80;99.90
6690;DHT22;3382;51.576;8.076;2022-11-20T18:01:38;5.40;99.90
6690;DHT22;3382;51.576;8.076;2022-11-20T18:04:05;5.30;99.90